sensor_id;sensor_type;location;lat;lon;timestamp;P1;durP1;ratioP1;P2;durP2;ratioP2
68980;SDS011;56033;51.880;12.632;2022-09-29T00:00:37;3.20;;;0.70;;
68980;SDS011;56033;51.880;12.632;2022-09-29T00:03:03;5.35;;;0.70;;
68980;SDS011;56033;51.880;12.632;2022-09-29T00:05:37;3.13;;;0.70;;
68980;SDS011;56033;51.880;12.632;2022-09-29T00:08:02;2.73;;;0.70;;
68980;SDS011;56033;51.880;12.632;2022-09-29T00:10:28;3.10;;;0.60;;
68980;SDS011;56033;51.880;12.632;2022-09-29T00:12:53;2.47;;;0.53;;
68980;SDS011;56033;51.880;12.632;2022-09-29T00:15:19;2.80;;;0.53;;
68980;SDS011;56033;51.880;12.632;2022-09-29T00:17:44;3.30;;;0.70;;
68980;SDS011;56033;51.880;12.632;2022-09-29T00:20:12;2.47;;;0.57;;
68980;SDS011;56033;51.880;12.632;2022-09-29T00:22:38;3.27;;;0.63;;
68980;SDS011;56033;51.880;12.632;2022-09-29T00:25:19;2.90;;;0.63;;
68980;SDS011;56033;51.880;12.632;2022-09-29T00:27:44;3.95;;;0.70;;
68980;SDS011;56033;51.880;12.632;2022-09-29T00:30:10;3.00;;;0.50;;
68980;SDS011;56033;51.880;12.632;2022-09-29T00:32:36;3.22;;;0.60;;
68980;SDS011;56033;51.880;12.632;2022-09-29T00:35:02;2.87;;;0.63;;
68980;SDS011;56033;51.880;12.632;2022-09-29T00:37:27;2.83;;;0.57;;
68980;SDS011;56033;51.880;12.632;2022-09-29T00:39:53;4.27;;;0.67;;
68980;SDS011;56033;51.880;12.632;2022-09-29T00:42:18;2.03;;;0.60;;
68980;SDS011;56033;51.880;12.632;2022-09-29T00:47:19;3.78;;;0.60;;
68980;SDS011;56033;51.880;12.632;2022-09-29T00:49:56;3.75;;;0.73;;
68980;SDS011;56033;51.880;12.632;2022-09-29T00:52:26;2.63;;;0.60;;
68980;SDS011;56033;51.880;12.632;2022-09-29T00:55:41;2.50;;;0.70;;
68980;SDS011;56033;51.880;12.632;2022-09-29T00:57:59;2.80;;;0.73;;
68980;SDS011;56033;51.880;12.632;2022-09-29T01:00:31;2.85;;;0.55;;
68980;SDS011;56033;51.880;12.632;2022-09-29T01:03:15;2.77;;;0.70;;
68980;SDS011;56033;51.880;12.632;2022-09-29T01:05:51;3.10;;;0.70;;
68980;SDS011;56033;51.880;12.632;2022-09-29T01:11:08;3.13;;;0.60;;
68980;SDS011;56033;51.880;12.632;2022-09-29T01:13:36;2.53;;;0.52;;
68980;SDS011;56033;51.880;12.632;2022-09-29T01:16:08;2.60;;;0.40;;
68980;SDS011;56033;51.880;12.632;2022-09-29T01:18:35;2.88;;;0.63;;
68980;SDS011;56033;51.880;12.632;2022-09-29T01:21:11;2.40;;;0.50;;
68980;SDS011;56033;51.880;12.632;2022-09-29T01:29:16;2.22;;;0.52;;
68980;SDS011;56033;51.880;12.632;2022-09-29T01:32:12;2.13;;;0.43;;
68980;SDS011;56033;51.880;12.632;2022-09-29T01:34:59;2.10;;;0.57;;
68980;SDS011;56033;51.880;12.632;2022-09-29T01:37:57;2.90;;;0.60;;
68980;SDS011;56033;51.880;12.632;2022-09-29T01:40:46;2.72;;;0.63;;
68980;SDS011;56033;51.880;12.632;2022-09-29T01:46:03;2.67;;;0.68;;
68980;SDS011;56033;51.880;12.632;2022-09-29T01:48:37;3.10;;;0.70;;
68980;SDS011;56033;51.880;12.632;2022-09-29T01:51:08;2.55;;;0.57;;
68980;SDS011;56033;51.880;12.632;2022-09-29T01:53:40;2.63;;;0.45;;
68980;SDS011;56033;51.880;12.632;2022-09-29T01:56:20;4.00;;;0.80;;
68980;SDS011;56033;51.880;12.632;2022-09-29T01:58:54;3.47;;;0.80;;
68980;SDS011;56033;51.880;12.632;2022-09-29T02:01:23;2.20;;;0.50;;
68980;SDS011;56033;51.880;12.632;2022-09-29T02:03:55;2.30;;;0.70;;
68980;SDS011;56033;51.880;12.632;2022-09-29T02:06:27;2.17;;;0.45;;
68980;SDS011;56033;51.880;12.632;2022-09-29T02:09:00;2.60;;;0.50;;
68980;SDS011;56033;51.880;12.632;2022-09-29T02:11:27;3.75;;;0.50;;
68980;SDS011;56033;51.880;12.632;2022-09-29T02:14:05;3.30;;;0.60;;
68980;SDS011;56033;51.880;12.632;2022-09-29T02:16:35;2.83;;;0.55;;
68980;SDS011;56033;51.880;12.632;2022-09-29T02:19:12;3.80;;;0.73;;
68980;SDS011;56033;51.880;12.632;2022-09-29T02:21:44;3.00;;;0.50;;
68980;SDS011;56033;51.880;12.632;2022-09-29T02:24:11;2.10;;;0.45;;
68980;SDS011;56033;51.880;12.632;2022-09-29T02:26:37;2.53;;;0.50;;
68980;SDS011;56033;51.880;12.632;2022-09-29T02:29:04;2.05;;;0.60;;
68980;SDS011;56033;51.880;12.632;2022-09-29T02:31:31;4.15;;;0.70;;
68980;SDS011;56033;51.880;12.632;2022-09-29T02:33:57;2.90;;;0.60;;
68980;SDS011;56033;51.880;12.632;2022-09-29T02:39:11;2.60;;;0.70;;
68980;SDS011;56033;51.880;12.632;2022-09-29T02:44:35;2.95;;;0.60;;
68980;SDS011;56033;51.880;12.632;2022-09-29T02:50:48;2.40;;;0.50;;
68980;SDS011;56033;51.880;12.632;2022-09-29T02:59:29;2.78;;;0.70;;
68980;SDS011;56033;51.880;12.632;2022-09-29T03:02:44;3.10;;;0.68;;
68980;SDS011;56033;51.880;12.632;2022-09-29T03:05:18;2.55;;;0.50;;
68980;SDS011;56033;51.880;12.632;2022-09-29T03:08:06;2.60;;;0.50;;
68980;SDS011;56033;51.880;12.632;2022-09-29T03:14:12;2.95;;;0.40;;
68980;SDS011;56033;51.880;12.632;2022-09-29T03:19:56;2.20;;;0.30;;
68980;SDS011;56033;51.880;12.632;2022-09-29T03:25:11;2.38;;;0.70;;
68980;SDS011;56033;51.880;12.632;2022-09-29T03:28:12;2.88;;;0.55;;
68980;SDS011;56033;51.880;12.632;2022-09-29T03:33:43;2.15;;;0.52;;
68980;SDS011;56033;51.880;12.632;2022-09-29T03:36:26;2.80;;;0.80;;
68980;SDS011;56033;51.880;12.632;2022-09-29T03:39:34;3.08;;;0.50;;
68980;SDS011;56033;51.880;12.632;2022-09-29T03:42:00;2.70;;;0.60;;
68980;SDS011;56033;51.880;12.632;2022-09-29T03:44:35;2.07;;;0.40;;
68980;SDS011;56033;51.880;12.632;2022-09-29T03:47:26;2.45;;;0.60;;
68980;SDS011;56033;51.880;12.632;2022-09-29T03:50:13;2.70;;;0.60;;
68980;SDS011;56033;51.880;12.632;2022-09-29T03:56:13;2.38;;;0.68;;
68980;SDS011;56033;51.880;12.632;2022-09-29T03:58:48;2.80;;;0.60;;
68980;SDS011;56033;51.880;12.632;2022-09-29T04:02:03;2.53;;;0.60;;
68980;SDS011;56033;51.880;12.632;2022-09-29T04:04:55;2.55;;;0.47;;
68980;SDS011;56033;51.880;12.632;2022-09-29T04:14:36;3.20;;;0.60;;
68980;SDS011;56033;51.880;12.632;2022-09-29T04:17:08;2.40;;;0.57;;
68980;SDS011;56033;51.880;12.632;2022-09-29T04:19:43;2.78;;;0.60;;
68980;SDS011;56033;51.880;12.632;2022-09-29T04:22:22;2.58;;;0.63;;
68980;SDS011;56033;51.880;12.632;2022-09-29T04:24:51;1.90;;;0.40;;
68980;SDS011;56033;51.880;12.632;2022-09-29T04:30:11;2.08;;;0.50;;
68980;SDS011;56033;51.880;12.632;2022-09-29T04:32:42;2.38;;;0.50;;
68980;SDS011;56033;51.880;12.632;2022-09-29T04:40:58;1.93;;;0.50;;
68980;SDS011;56033;51.880;12.632;2022-09-29T04:43:29;1.90;;;0.45;;
68980;SDS011;56033;51.880;12.632;2022-09-29T04:46:13;2.30;;;0.60;;
68980;SDS011;56033;51.880;12.632;2022-09-29T04:48:49;2.67;;;0.50;;
68980;SDS011;56033;51.880;12.632;2022-09-29T04:51:29;3.83;;;0.50;;
68980;SDS011;56033;51.880;12.632;2022-09-29T04:53:58;2.67;;;0.50;;
68980;SDS011;56033;51.880;12.632;2022-09-29T04:57:02;2.55;;;0.63;;
68980;SDS011;56033;51.880;12.632;2022-09-29T05:05:42;2.70;;;0.40;;
68980;SDS011;56033;51.880;12.632;2022-09-29T05:13:57;2.57;;;0.53;;
68980;SDS011;56033;51.880;12.632;2022-09-29T05:30:10;2.63;;;0.60;;
68980;SDS011;56033;51.880;12.632;2022-09-29T05:32:35;3.27;;;0.50;;
68980;SDS011;56033;51.880;12.632;2022-09-29T05:35:01;2.00;;;0.40;;
68980;SDS011;56033;51.880;12.632;2022-09-29T05:37:27;2.10;;;0.40;;
68980;SDS011;56033;51.880;12.632;2022-09-29T05:39:52;2.60;;;0.50;;
68980;SDS011;56033;51.880;12.632;2022-09-29T05:42:18;2.20;;;0.50;;
68980;SDS011;56033;51.880;12.632;2022-09-29T05:44:44;2.60;;;0.70;;
68980;SDS011;56033;51.880;12.632;2022-09-29T05:47:09;2.17;;;0.50;;
68980;SDS011;56033;51.880;12.632;2022-09-29T05:49:34;2.53;;;0.57;;
68980;SDS011;56033;51.880;12.632;2022-09-29T05:52:00;6.57;;;0.98;;
68980;SDS011;56033;51.880;12.632;2022-09-29T05:54:26;13.60;;;0.90;;
68980;SDS011;56033;51.880;12.632;2022-09-29T05:56:51;9.00;;;1.03;;
68980;SDS011;56033;51.880;12.632;2022-09-29T05:59:17;7.20;;;0.90;;
68980;SDS011;56033;51.880;12.632;2022-09-29T06:01:42;5.70;;;0.80;;
68980;SDS011;56033;51.880;12.632;2022-09-29T06:04:08;7.17;;;1.10;;
68980;SDS011;56033;51.880;12.632;2022-09-29T06:06:33;7.27;;;1.20;;
68980;SDS011;56033;51.880;12.632;2022-09-29T06:09:00;10.48;;;1.38;;
68980;SDS011;56033;51.880;12.632;2022-09-29T06:11:27;20.38;;;1.55;;
68980;SDS011;56033;51.880;12.632;2022-09-29T06:13:55;6.22;;;1.77;;
68980;SDS011;56033;51.880;12.632;2022-09-29T06:16:22;7.27;;;1.47;;
68980;SDS011;56033;51.880;12.632;2022-09-29T06:18:49;9.10;;;1.63;;
68980;SDS011;56033;51.880;12.632;2022-09-29T06:21:16;8.27;;;1.30;;
68980;SDS011;56033;51.880;12.632;2022-09-29T06:23:47;8.00;;;1.07;;
68980;SDS011;56033;51.880;12.632;2022-09-29T06:26:13;4.68;;;1.00;;
68980;SDS011;56033;51.880;12.632;2022-09-29T06:28:40;5.60;;;1.15;;
68980;SDS011;56033;51.880;12.632;2022-09-29T06:31:25;4.80;;;1.30;;
68980;SDS011;56033;51.880;12.632;2022-09-29T06:33:57;4.97;;;1.00;;
68980;SDS011;56033;51.880;12.632;2022-09-29T06:37:12;5.18;;;0.90;;
68980;SDS011;56033;51.880;12.632;2022-09-29T06:40:17;7.97;;;0.97;;
68980;SDS011;56033;51.880;12.632;2022-09-29T06:43:00;4.15;;;1.25;;
68980;SDS011;56033;51.880;12.632;2022-09-29T06:45:32;7.30;;;0.95;;
68980;SDS011;56033;51.880;12.632;2022-09-29T06:48:18;5.78;;;1.10;;
68980;SDS011;56033;51.880;12.632;2022-09-29T06:51:06;4.35;;;0.93;;
68980;SDS011;56033;51.880;12.632;2022-09-29T06:53:50;7.30;;;0.80;;
68980;SDS011;56033;51.880;12.632;2022-09-29T06:56:22;5.88;;;1.08;;
68980;SDS011;56033;51.880;12.632;2022-09-29T06:59:09;4.68;;;0.88;;
68980;SDS011;56033;51.880;12.632;2022-09-29T07:01:41;4.72;;;0.73;;
68980;SDS011;56033;51.880;12.632;2022-09-29T07:04:27;4.93;;;1.05;;
68980;SDS011;56033;51.880;12.632;2022-09-29T07:06:57;5.63;;;0.90;;
68980;SDS011;56033;51.880;12.632;2022-09-29T07:09:44;6.07;;;0.80;;
68980;SDS011;56033;51.880;12.632;2022-09-29T07:12:15;5.97;;;0.90;;
68980;SDS011;56033;51.880;12.632;2022-09-29T07:14:46;7.15;;;0.70;;
68980;SDS011;56033;51.880;12.632;2022-09-29T07:17:18;3.40;;;0.80;;
68980;SDS011;56033;51.880;12.632;2022-09-29T07:19:49;3.57;;;0.93;;
68980;SDS011;56033;51.880;12.632;2022-09-29T07:22:21;3.90;;;0.70;;
68980;SDS011;56033;51.880;12.632;2022-09-29T07:27:55;5.82;;;0.80;;
68980;SDS011;56033;51.880;12.632;2022-09-29T07:34:12;4.97;;;0.90;;
68980;SDS011;56033;51.880;12.632;2022-09-29T07:36:43;3.35;;;0.90;;
68980;SDS011;56033;51.880;12.632;2022-09-29T07:39:14;4.05;;;0.80;;
68980;SDS011;56033;51.880;12.632;2022-09-29T07:41:46;3.50;;;1.20;;
68980;SDS011;56033;51.880;12.632;2022-09-29T07:44:17;4.70;;;0.80;;
68980;SDS011;56033;51.880;12.632;2022-09-29T07:49:50;3.55;;;0.90;;
68980;SDS011;56033;51.880;12.632;2022-09-29T07:52:37;4.57;;;1.02;;
68980;SDS011;56033;51.880;12.632;2022-09-29T07:55:08;4.30;;;0.77;;
68980;SDS011;56033;51.880;12.632;2022-09-29T07:57:40;3.35;;;0.90;;
68980;SDS011;56033;51.880;12.632;2022-09-29T08:00:27;4.75;;;1.20;;
68980;SDS011;56033;51.880;12.632;2022-09-29T08:03:42;5.68;;;1.17;;
68980;SDS011;56033;51.880;12.632;2022-09-29T08:06:18;5.55;;;0.88;;
68980;SDS011;56033;51.880;12.632;2022-09-29T08:11:50;4.78;;;0.95;;
68980;SDS011;56033;51.880;12.632;2022-09-29T08:14:22;4.45;;;1.27;;
68980;SDS011;56033;51.880;12.632;2022-09-29T08:16:52;6.32;;;1.00;;
68980;SDS011;56033;51.880;12.632;2022-09-29T08:19:24;4.65;;;1.02;;
68980;SDS011;56033;51.880;12.632;2022-09-29T08:24:54;5.15;;;1.13;;
68980;SDS011;56033;51.880;12.632;2022-09-29T08:27:29;6.72;;;1.23;;
68980;SDS011;56033;51.880;12.632;2022-09-29T08:30:01;5.30;;;0.85;;
68980;SDS011;56033;51.880;12.632;2022-09-29T08:35:52;6.37;;;0.80;;
68980;SDS011;56033;51.880;12.632;2022-09-29T08:45:24;5.30;;;1.20;;
68980;SDS011;56033;51.880;12.632;2022-09-29T08:48:10;3.50;;;0.70;;
68980;SDS011;56033;51.880;12.632;2022-09-29T08:51:11;4.57;;;0.77;;
68980;SDS011;56033;51.880;12.632;2022-09-29T08:54:14;4.97;;;0.80;;
68980;SDS011;56033;51.880;12.632;2022-09-29T08:56:58;4.25;;;0.70;;
68980;SDS011;56033;51.880;12.632;2022-09-29T08:59:28;3.95;;;0.85;;
68980;SDS011;56033;51.880;12.632;2022-09-29T09:05:21;3.60;;;0.63;;
68980;SDS011;56033;51.880;12.632;2022-09-29T09:20:44;6.17;;;0.80;;
68980;SDS011;56033;51.880;12.632;2022-09-29T09:24:16;5.40;;;1.52;;
68980;SDS011;56033;51.880;12.632;2022-09-29T09:39:35;4.10;;;1.40;;
68980;SDS011;56033;51.880;12.632;2022-09-29T09:42:40;5.00;;;1.42;;
68980;SDS011;56033;51.880;12.632;2022-09-29T10:49:26;2.55;;;0.52;;
68980;SDS011;56033;51.880;12.632;2022-09-29T10:55:48;2.03;;;0.50;;
68980;SDS011;56033;51.880;12.632;2022-09-29T10:59:09;2.65;;;0.57;;
68980;SDS011;56033;51.880;12.632;2022-09-29T11:02:02;2.28;;;0.60;;
68980;SDS011;56033;51.880;12.632;2022-09-29T11:04:34;2.28;;;0.40;;
68980;SDS011;56033;51.880;12.632;2022-09-29T11:07:19;2.63;;;0.50;;
68980;SDS011;56033;51.880;12.632;2022-09-29T11:09:50;2.60;;;0.50;;
68980;SDS011;56033;51.880;12.632;2022-09-29T11:12:36;1.95;;;0.38;;
68980;SDS011;56033;51.880;12.632;2022-09-29T11:27:32;3.25;;;0.60;;
68980;SDS011;56033;51.880;12.632;2022-09-29T11:30:51;2.00;;;0.30;;
68980;SDS011;56033;51.880;12.632;2022-09-29T13:47:50;3.30;;;0.40;;
68980;SDS011;56033;51.880;12.632;2022-09-29T13:50:38;2.90;;;0.30;;
68980;SDS011;56033;51.880;12.632;2022-09-29T13:53:31;3.13;;;0.30;;
68980;SDS011;56033;51.880;12.632;2022-09-29T13:56:15;2.92;;;0.30;;
68980;SDS011;56033;51.880;12.632;2022-09-29T14:01:11;2.10;;;0.30;;
68980;SDS011;56033;51.880;12.632;2022-09-29T14:03:57;2.63;;;0.32;;
68980;SDS011;56033;51.880;12.632;2022-09-29T14:06:30;2.77;;;0.20;;
68980;SDS011;56033;51.880;12.632;2022-09-29T14:09:18;4.60;;;0.50;;
68980;SDS011;56033;51.880;12.632;2022-09-29T14:11:50;1.85;;;0.25;;
68980;SDS011;56033;51.880;12.632;2022-09-29T14:14:21;3.90;;;0.40;;
68980;SDS011;56033;51.880;12.632;2022-09-29T14:22:56;2.65;;;0.30;;
68980;SDS011;56033;51.880;12.632;2022-09-29T14:28:31;1.90;;;0.30;;
68980;SDS011;56033;51.880;12.632;2022-09-29T14:31:17;2.87;;;0.23;;
68980;SDS011;56033;51.880;12.632;2022-09-29T14:33:46;2.25;;;0.28;;
68980;SDS011;56033;51.880;12.632;2022-09-29T14:36:17;2.90;;;0.20;;
68980;SDS011;56033;51.880;12.632;2022-09-29T14:38:50;2.33;;;0.20;;
68980;SDS011;56033;51.880;12.632;2022-09-29T14:41:26;2.22;;;0.35;;
68980;SDS011;56033;51.880;12.632;2022-09-29T14:44:05;2.27;;;0.20;;
68980;SDS011;56033;51.880;12.632;2022-09-29T14:58:48;2.97;;;0.30;;
68980;SDS011;56033;51.880;12.632;2022-09-29T15:01:34;2.15;;;0.32;;
68980;SDS011;56033;51.880;12.632;2022-09-29T15:04:18;2.13;;;0.30;;
68980;SDS011;56033;51.880;12.632;2022-09-29T15:06:49;3.72;;;0.47;;
68980;SDS011;56033;51.880;12.632;2022-09-29T15:09:20;2.25;;;0.25;;
68980;SDS011;56033;51.880;12.632;2022-09-29T15:11:51;2.93;;;0.30;;
68980;SDS011;56033;51.880;12.632;2022-09-29T15:14:26;3.08;;;0.30;;
68980;SDS011;56033;51.880;12.632;2022-09-29T15:25:56;2.90;;;0.30;;
68980;SDS011;56033;51.880;12.632;2022-09-29T15:31:04;2.42;;;0.30;;
68980;SDS011;56033;51.880;12.632;2022-09-29T15:33:41;2.28;;;0.28;;
68980;SDS011;56033;51.880;12.632;2022-09-29T15:39:55;2.57;;;0.27;;
68980;SDS011;56033;51.880;12.632;2022-09-29T15:42:00;2.03;;;0.20;;
68980;SDS011;56033;51.880;12.632;2022-09-29T15:44:50;1.70;;;0.30;;
68980;SDS011;56033;51.880;12.632;2022-09-29T15:47:33;2.47;;;0.22;;
68980;SDS011;56033;51.880;12.632;2022-09-29T15:50:24;2.17;;;0.30;;
68980;SDS011;56033;51.880;12.632;2022-09-29T15:53:01;2.60;;;0.23;;
68980;SDS011;56033;51.880;12.632;2022-09-29T15:55:29;3.42;;;0.30;;
68980;SDS011;56033;51.880;12.632;2022-09-29T15:58:04;2.05;;;0.30;;
68980;SDS011;56033;51.880;12.632;2022-09-29T16:01:14;2.25;;;0.35;;
68980;SDS011;56033;51.880;12.632;2022-09-29T16:06:46;2.27;;;0.20;;
68980;SDS011;56033;51.880;12.632;2022-09-29T16:09:22;3.17;;;0.30;;
68980;SDS011;56033;51.880;12.632;2022-09-29T16:11:53;1.70;;;0.30;;
68980;SDS011;56033;51.880;12.632;2022-09-29T16:14:25;3.45;;;0.40;;
68980;SDS011;56033;51.880;12.632;2022-09-29T16:16:53;2.10;;;0.32;;
68980;SDS011;56033;51.880;12.632;2022-09-29T16:19:28;1.70;;;0.20;;
68980;SDS011;56033;51.880;12.632;2022-09-29T16:21:57;3.13;;;0.40;;
68980;SDS011;56033;51.880;12.632;2022-09-29T16:24:28;2.72;;;0.20;;
68980;SDS011;56033;51.880;12.632;2022-09-29T16:27:01;1.58;;;0.20;;
68980;SDS011;56033;51.880;12.632;2022-09-29T16:29:34;2.78;;;0.30;;
68980;SDS011;56033;51.880;12.632;2022-09-29T16:44:10;5.10;;;0.47;;
68980;SDS011;56033;51.880;12.632;2022-09-29T16:49:57;5.43;;;1.10;;
68980;SDS011;56033;51.880;12.632;2022-09-29T16:52:47;3.60;;;0.65;;
68980;SDS011;56033;51.880;12.632;2022-09-29T16:58:34;5.38;;;1.10;;
68980;SDS011;56033;51.880;12.632;2022-09-29T17:01:04;4.07;;;0.70;;
68980;SDS011;56033;51.880;12.632;2022-09-29T17:03:39;3.80;;;0.95;;
68980;SDS011;56033;51.880;12.632;2022-09-29T17:06:07;4.60;;;0.93;;
68980;SDS011;56033;51.880;12.632;2022-09-29T17:08:42;5.80;;;0.98;;
68980;SDS011;56033;51.880;12.632;2022-09-29T17:11:43;5.63;;;1.02;;
68980;SDS011;56033;51.880;12.632;2022-09-29T17:14:25;6.63;;;1.03;;
68980;SDS011;56033;51.880;12.632;2022-09-29T17:16:57;4.15;;;1.23;;
68980;SDS011;56033;51.880;12.632;2022-09-29T17:19:28;4.30;;;1.23;;
68980;SDS011;56033;51.880;12.632;2022-09-29T17:22:00;7.07;;;1.40;;
68980;SDS011;56033;51.880;12.632;2022-09-29T17:24:32;7.50;;;1.60;;
68980;SDS011;56033;51.880;12.632;2022-09-29T17:27:04;8.30;;;1.30;;
68980;SDS011;56033;51.880;12.632;2022-09-29T17:29:50;5.95;;;1.20;;
68980;SDS011;56033;51.880;12.632;2022-09-29T17:32:19;7.68;;;1.55;;
68980;SDS011;56033;51.880;12.632;2022-09-29T17:34:53;6.88;;;1.55;;
68980;SDS011;56033;51.880;12.632;2022-09-29T17:37:22;5.03;;;1.42;;
68980;SDS011;56033;51.880;12.632;2022-09-29T17:39:56;6.97;;;1.30;;
68980;SDS011;56033;51.880;12.632;2022-09-29T17:42:25;6.47;;;1.83;;
68980;SDS011;56033;51.880;12.632;2022-09-29T17:44:53;6.18;;;1.52;;
68980;SDS011;56033;51.880;12.632;2022-09-29T17:47:21;5.72;;;1.55;;
68980;SDS011;56033;51.880;12.632;2022-09-29T17:50:00;7.60;;;1.77;;
68980;SDS011;56033;51.880;12.632;2022-09-29T17:53:03;5.07;;;1.47;;
68980;SDS011;56033;51.880;12.632;2022-09-29T17:55:32;6.43;;;1.80;;
68980;SDS011;56033;51.880;12.632;2022-09-29T17:58:04;6.72;;;1.55;;
68980;SDS011;56033;51.880;12.632;2022-09-29T18:00:36;6.47;;;1.70;;
68980;SDS011;56033;51.880;12.632;2022-09-29T18:03:10;8.20;;;1.67;;
68980;SDS011;56033;51.880;12.632;2022-09-29T18:05:40;8.53;;;1.60;;
68980;SDS011;56033;51.880;12.632;2022-09-29T18:08:12;7.47;;;1.52;;
68980;SDS011;56033;51.880;12.632;2022-09-29T18:10:46;5.28;;;1.42;;
68980;SDS011;56033;51.880;12.632;2022-09-29T18:13:18;12.00;;;1.65;;
68980;SDS011;56033;51.880;12.632;2022-09-29T18:15:59;7.35;;;1.80;;
68980;SDS011;56033;51.880;12.632;2022-09-29T18:18:31;9.93;;;1.70;;
68980;SDS011;56033;51.880;12.632;2022-09-29T18:21:01;6.93;;;1.55;;
68980;SDS011;56033;51.880;12.632;2022-09-29T18:23:33;10.10;;;1.65;;
68980;SDS011;56033;51.880;12.632;2022-09-29T18:26:05;7.30;;;1.35;;
68980;SDS011;56033;51.880;12.632;2022-09-29T18:28:37;7.38;;;1.60;;
68980;SDS011;56033;51.880;12.632;2022-09-29T18:31:09;11.50;;;1.50;;
68980;SDS011;56033;51.880;12.632;2022-09-29T18:33:54;11.82;;;1.30;;
68980;SDS011;56033;51.880;12.632;2022-09-29T18:36:29;5.82;;;1.15;;
68980;SDS011;56033;51.880;12.632;2022-09-29T18:38:54;7.88;;;1.30;;
68980;SDS011;56033;51.880;12.632;2022-09-29T18:41:27;6.07;;;1.50;;
68980;SDS011;56033;51.880;12.632;2022-09-29T18:44:00;6.05;;;1.20;;
68980;SDS011;56033;51.880;12.632;2022-09-29T18:46:33;9.55;;;1.50;;
68980;SDS011;56033;51.880;12.632;2022-09-29T18:49:02;7.15;;;1.30;;
68980;SDS011;56033;51.880;12.632;2022-09-29T18:51:28;10.43;;;1.40;;
68980;SDS011;56033;51.880;12.632;2022-09-29T18:53:54;8.30;;;1.30;;
68980;SDS011;56033;51.880;12.632;2022-09-29T18:56:20;7.00;;;1.40;;
68980;SDS011;56033;51.880;12.632;2022-09-29T18:58:45;7.00;;;1.20;;
68980;SDS011;56033;51.880;12.632;2022-09-29T19:01:12;4.97;;;1.23;;
68980;SDS011;56033;51.880;12.632;2022-09-29T19:03:42;5.30;;;1.30;;
68980;SDS011;56033;51.880;12.632;2022-09-29T19:06:12;9.80;;;1.40;;
68980;SDS011;56033;51.880;12.632;2022-09-29T19:08:42;7.15;;;1.33;;
68980;SDS011;56033;51.880;12.632;2022-09-29T19:11:17;12.38;;;1.98;;
68980;SDS011;56033;51.880;12.632;2022-09-29T19:13:45;5.38;;;1.13;;
68980;SDS011;56033;51.880;12.632;2022-09-29T19:24:39;6.03;;;1.17;;
68980;SDS011;56033;51.880;12.632;2022-09-29T19:30:43;5.47;;;1.20;;
68980;SDS011;56033;51.880;12.632;2022-09-29T21:54:47;7.07;;;0.98;;
68980;SDS011;56033;51.880;12.632;2022-09-29T21:57:31;4.45;;;1.00;;
68980;SDS011;56033;51.880;12.632;2022-09-29T22:37:07;4.63;;;0.60;;
68980;SDS011;56033;51.880;12.632;2022-09-29T23:01:53;2.88;;;0.68;;
68980;SDS011;56033;51.880;12.632;2022-09-29T23:22:01;3.80;;;0.70;;
68980;SDS011;56033;51.880;12.632;2022-09-29T23:24:32;2.90;;;1.00;;
68980;SDS011;56033;51.880;12.632;2022-09-29T23:27:20;3.45;;;0.85;;
68980;SDS011;56033;51.880;12.632;2022-09-29T23:32:54;3.13;;;0.90;;
68980;SDS011;56033;51.880;12.632;2022-09-29T23:35:26;3.47;;;0.90;;
68980;SDS011;56033;51.880;12.632;2022-09-29T23:37:56;2.90;;;0.90;;
68980;SDS011;56033;51.880;12.632;2022-09-29T23:40:40;3.00;;;0.80;;
68980;SDS011;56033;51.880;12.632;2022-09-29T23:43:14;2.58;;;0.60;;
68980;SDS011;56033;51.880;12.632;2022-09-29T23:45:40;4.85;;;0.98;;
68980;SDS011;56033;51.880;12.632;2022-09-29T23:48:16;3.60;;;0.90;;
68980;SDS011;56033;51.880;12.632;2022-09-29T23:50:48;2.63;;;0.70;;
68980;SDS011;56033;51.880;12.632;2022-09-29T23:53:19;2.80;;;0.60;;
68980;SDS011;56033;51.880;12.632;2022-09-29T23:56:05;3.30;;;0.93;;
68980;SDS011;56033;51.880;12.632;2022-09-29T23:58:39;4.03;;;0.80;;
